Time;durP1;ratioP1;P1;durP2;ratioP2;P2;SDS_P1;SDS_P2;PMS_P1;PMS_P2;Temp;Humidity;BMP_temperature;BMP_pressure;BME280_temperature;BME280_humidity;BME280_pressure;Samples;Min_cycle;Max_cycle;Signal;HPM_P1;HPM_P2
2021/09/16 00:01:01;;;;;;;18.10;10.00;;;;;;;19.26;69.57;99872.80;112288;1203;22448;-59
2021/09/16 00:03:32;;;;;;;23.80;10.00;;;;;;;19.25;69.49;99869.22;112183;1203;24760;-58
2021/09/16 00:06:03;;;;;;;21.80;9.50;;;;;;;19.25;69.75;99865.11;112254;1203;25379;-59
2021/09/16 00:08:35;;;;;;;19.10;9.40;;;;;;;19.25;69.71;99862.48;112226;1203;25042;-58
2021/09/16 00:11:06;;;;;;;21.20;10.60;;;;;;;19.24;69.71;99858.48;112211;1203;22451;-59
2021/09/16 00:13:39;;;;;;;20.90;10.10;;;;;;;19.23;69.94;99850.95;112270;1204;24163;-61
2021/09/16 00:16:10;;;;;;;20.40;10.10;;;;;;;19.22;69.93;99851.84;112247;1203;24135;-58
2021/09/16 00:18:41;;;;;;;21.80;10.80;;;;;;;19.21;70.02;99845.58;112114;1203;22436;-60
2021/09/16 00:21:13;;;;;;;22.00;11.40;;;;;;;19.20;70.19;99838.26;112179;1203;22454;-60
2021/09/16 00:23:44;;;;;;;23.20;11.30;;;;;;;19.19;70.22;99831.23;112237;1204;24044;-60
2021/09/16 00:26:15;;;;;;;22.60;10.40;;;;;;;19.18;70.16;99832.38;112284;1203;22384;-57
2021/09/16 00:28:46;;;;;;;19.70;10.50;;;;;;;19.19;70.41;99834.54;112245;1203;22454;-58
2021/09/16 00:31:19;;;;;;;24.20;10.70;;;;;;;19.16;70.58;99830.16;112168;1203;22412;-60
2021/09/16 00:33:51;;;;;;;19.60;9.80;;;;;;;19.15;70.70;99834.53;112222;1203;24144;-59
2021/09/16 00:36:23;;;;;;;22.50;10.20;;;;;;;19.13;70.75;99830.55;112173;1203;22457;-62
2021/09/16 00:38:54;;;;;;;20.00;10.10;;;;;;;19.13;70.85;99833.44;112197;1203;22463;-59
2021/09/16 00:41:28;;;;;;;20.00;10.20;;;;;;;19.11;71.01;99838.67;112221;1203;24114;-59
2021/09/16 00:44:00;;;;;;;20.20;10.10;;;;;;;19.10;71.22;99839.93;112233;1204;22436;-59
2021/09/16 00:46:31;;;;;;;20.80;10.20;;;;;;;19.07;71.12;99839.83;112176;1203;23638;-58
2021/09/16 00:49:04;;;;;;;21.40;10.80;;;;;;;19.07;71.25;99842.31;112157;1203;25217;-59
2021/09/16 00:51:37;;;;;;;18.50;9.90;;;;;;;19.07;71.38;99841.48;112223;1203;24842;-62
2021/09/16 00:54:13;;;;;;;20.50;9.50;;;;;;;19.07;71.35;99843.23;112231;1203;25094;-61
2021/09/16 00:56:48;;;;;;;23.70;11.00;;;;;;;19.08;71.59;99846.97;112192;1203;22476;-61
2021/09/16 00:59:23;;;;;;;19.70;10.10;;;;;;;19.08;71.48;99848.55;112391;1203;25046;-61
2021/09/16 01:01:54;;;;;;;18.90;9.50;;;;;;;19.08;71.64;99846.19;112274;1202;27101;-60
2021/09/16 01:04:25;;;;;;;23.70;9.60;;;;;;;19.09;71.59;99845.77;112142;1203;24067;-60
2021/09/16 01:06:56;;;;;;;21.00;10.60;;;;;;;19.08;71.62;99844.07;112200;1203;23111;-58
2021/09/16 01:09:28;;;;;;;24.00;11.10;;;;;;;19.09;71.64;99848.19;112353;1202;22496;-58
2021/09/16 01:11:59;;;;;;;20.60;9.20;;;;;;;19.08;71.74;99847.38;112312;1203;22379;-60
2021/09/16 01:14:31;;;;;;;19.90;9.70;;;;;;;19.08;71.63;99846.70;112378;1203;22450;-58
2021/09/16 01:17:02;;;;;;;19.30;9.70;;;;;;;19.08;71.60;99848.92;112075;1203;22456;-60
2021/09/16 01:19:34;;;;;;;22.30;9.90;;;;;;;19.08;71.69;99847.58;112196;1203;24078;-59
2021/09/16 01:22:08;;;;;;;20.80;10.60;;;;;;;19.09;71.72;99843.81;112310;1203;22451;-58
2021/09/16 01:24:40;;;;;;;19.00;10.50;;;;;;;19.09;71.78;99845.24;112292;1203;22450;-60
2021/09/16 01:27:11;;;;;;;23.30;10.00;;;;;;;19.08;71.88;99850.97;112172;1204;22572;-59
2021/09/16 01:29:42;;;;;;;19.30;9.10;;;;;;;19.07;71.80;99851.98;112152;1203;22614;-59
2021/09/16 01:32:13;;;;;;;20.60;9.70;;;;;;;19.08;71.77;99850.89;112084;1203;23946;-59
2021/09/16 01:34:44;;;;;;;21.00;9.40;;;;;;;19.08;71.76;99856.58;112084;1203;22748;-61
2021/09/16 01:37:15;;;;;;;22.10;10.90;;;;;;;19.08;71.70;99854.20;112146;1203;22403;-61
2021/09/16 01:39:46;;;;;;;21.80;9.00;;;;;;;19.08;71.80;99849.90;112031;1203;24076;-59
2021/09/16 01:42:18;;;;;;;19.60;9.40;;;;;;;19.07;71.79;99852.59;112048;1203;23348;-60
2021/09/16 01:44:50;;;;;;;21.20;9.70;;;;;;;19.06;71.91;99848.34;112310;1203;23116;-60
2021/09/16 01:47:21;;;;;;;19.60;9.20;;;;;;;19.06;72.10;99846.91;112282;1204;22439;-59
2021/09/16 01:49:52;;;;;;;19.00;9.30;;;;;;;19.06;71.87;99845.73;112069;1203;22790;-59
2021/09/16 01:52:23;;;;;;;19.50;9.90;;;;;;;19.05;72.12;99845.99;112179;1203;22445;-58
2021/09/16 01:54:54;;;;;;;22.20;10.50;;;;;;;19.05;72.23;99840.71;112157;1203;22465;-58
2021/09/16 01:57:25;;;;;;;22.10;11.10;;;;;;;19.05;72.29;99840.25;112131;1203;22863;-58
2021/09/16 01:59:58;;;;;;;23.00;10.60;;;;;;;19.03;72.36;99839.26;112267;1203;22431;-60
2021/09/16 02:02:29;;;;;;;20.40;10.60;;;;;;;19.02;72.48;99836.86;112109;1203;22450;-60
2021/09/16 02:05:02;;;;;;;21.40;9.80;;;;;;;19.01;72.40;99836.89;112137;1203;22985;-60
2021/09/16 02:07:33;;;;;;;21.10;9.40;;;;;;;18.99;72.23;99836.45;112130;1203;22450;-59
2021/09/16 02:10:08;;;;;;;20.60;9.70;;;;;;;19.00;72.25;99837.44;112157;1203;22441;-61
2021/09/16 02:12:39;;;;;;;20.80;10.40;;;;;;;18.99;72.41;99833.55;112376;1203;22461;-58
2021/09/16 02:15:11;;;;;;;23.10;11.10;;;;;;;18.98;72.51;99835.30;112073;1203;22494;-60
2021/09/16 02:17:42;;;;;;;21.00;10.60;;;;;;;18.97;72.62;99835.54;112423;1203;26373;-58
2021/09/16 02:20:14;;;;;;;19.60;9.20;;;;;;;18.96;72.49;99836.84;112100;1203;22590;-58
2021/09/16 02:22:45;;;;;;;20.30;10.00;;;;;;;18.95;72.52;99836.74;112285;1203;22469;-58
2021/09/16 02:25:16;;;;;;;24.50;10.20;;;;;;;18.94;72.69;99831.79;112156;1203;22401;-60
2021/09/16 02:27:47;;;;;;;23.50;11.40;;;;;;;18.92;72.67;99831.73;112103;1203;24093;-58
2021/09/16 02:30:19;;;;;;;19.60;10.70;;;;;;;18.91;72.96;99831.19;112332;1203;24028;-60
2021/09/16 02:32:51;;;;;;;21.30;10.30;;;;;;;18.90;72.84;99832.71;112176;1203;22445;-56
2021/09/16 02:35:23;;;;;;;22.90;10.70;;;;;;;18.88;73.04;99831.34;112164;1203;25120;-58
2021/09/16 02:37:55;;;;;;;24.00;10.50;;;;;;;18.88;73.14;99829.52;112038;1203;26493;-60
2021/09/16 02:40:27;;;;;;;21.10;11.70;;;;;;;18.86;73.47;99828.98;112109;1203;22633;-59
2021/09/16 02:42:58;;;;;;;26.40;11.30;;;;;;;18.85;73.79;99828.34;112173;1203;22795;-58
2021/09/16 02:45:33;;;;;;;22.40;11.00;;;;;;;18.82;73.92;99827.67;112182;1202;25360;-56
2021/09/16 02:48:04;;;;;;;22.70;10.70;;;;;;;18.81;74.16;99827.17;112184;1203;22466;-59
2021/09/16 02:50:35;;;;;;;30.40;12.00;;;;;;;18.81;74.31;99830.91;112046;1203;24131;-62
2021/09/16 02:53:06;;;;;;;23.50;11.70;;;;;;;18.80;74.61;99834.92;112190;1203;22454;-58
2021/09/16 02:55:37;;;;;;;22.50;11.20;;;;;;;18.79;74.65;99832.70;112040;1203;24140;-59
2021/09/16 02:58:11;;;;;;;25.10;11.60;;;;;;;18.78;74.85;99835.12;112069;1203;22451;-60
2021/09/16 03:00:42;;;;;;;19.40;11.10;;;;;;;18.76;74.91;99840.48;112235;1203;22475;-61
2021/09/16 03:03:15;;;;;;;21.40;11.80;;;;;;;18.75;75.08;99839.18;112187;1203;23620;-59
2021/09/16 03:05:46;;;;;;;21.90;11.30;;;;;;;18.73;75.24;99843.65;112084;1203;22434;-61
2021/09/16 03:08:18;;;;;;;24.60;11.00;;;;;;;18.71;75.38;99844.61;112246;1203;22454;-59
2021/09/16 03:10:49;;;;;;;20.80;10.50;;;;;;;18.70;75.47;99838.89;112215;1203;23244;-59
2021/09/16 03:13:20;;;;;;;19.50;10.50;;;;;;;18.69;75.58;99841.97;112065;1203;24269;-60
2021/09/16 03:15:51;;;;;;;17.10;9.20;;;;;;;18.69;75.64;99838.74;112031;1203;22451;-59
2021/09/16 03:18:23;;;;;;;22.00;10.20;;;;;;;18.69;75.61;99835.14;112096;1203;23434;-59
2021/09/16 03:20:54;;;;;;;19.00;9.30;;;;;;;18.69;75.76;99834.54;112121;1203;22721;-61
2021/09/16 03:23:25;;;;;;;18.30;9.20;;;;;;;18.68;75.81;99834.23;112129;1203;25090;-59
2021/09/16 03:25:56;;;;;;;22.60;10.60;;;;;;;18.67;75.94;99827.37;112139;1203;22486;-60
2021/09/16 03:28:28;;;;;;;19.00;10.40;;;;;;;18.66;76.07;99829.09;112203;1203;26212;-59
2021/09/16 03:30:59;;;;;;;20.60;10.40;;;;;;;18.65;76.43;99832.20;112199;1203;25226;-61
2021/09/16 03:33:31;;;;;;;23.60;10.90;;;;;;;18.64;76.45;99832.79;112050;1203;22982;-58
2021/09/16 03:36:12;;;;;;;;;;;;;;;;;;;;;
2021/09/16 03:38:43;;;;;;;19.90;10.10;;;;;;;18.63;76.77;99840.73;112068;1203;22451;-60
2021/09/16 03:41:14;;;;;;;19.90;9.50;;;;;;;18.62;76.69;99843.33;112068;1203;22510;-57
2021/09/16 03:43:45;;;;;;;24.20;9.90;;;;;;;18.62;76.71;99845.02;112013;1203;22453;-60
2021/09/16 03:46:16;;;;;;;19.80;10.00;;;;;;;18.62;76.74;99849.54;112075;1203;22464;-58
2021/09/16 03:48:47;;;;;;;20.20;9.00;;;;;;;18.62;76.89;99850.47;112197;1203;22734;-63
2021/09/16 03:51:18;;;;;;;20.90;10.90;;;;;;;18.61;76.96;99849.39;111837;1203;25145;-61
2021/09/16 03:53:49;;;;;;;20.40;10.00;;;;;;;18.61;76.96;99849.50;111842;1204;22451;-63
2021/09/16 03:56:20;;;;;;;20.80;9.80;;;;;;;18.61;76.86;99845.70;111660;1203;24125;-60
2021/09/16 03:58:50;;;;;;;23.20;11.50;;;;;;;18.62;77.11;99847.42;111681;1203;22533;-60
2021/09/16 04:01:21;;;;;;;20.10;10.00;;;;;;;18.63;77.11;99848.33;111890;1203;22454;-60
2021/09/16 04:03:52;;;;;;;21.40;10.30;;;;;;;18.62;77.30;99851.80;111976;1203;24089;-61
2021/09/16 04:06:23;;;;;;;21.70;9.80;;;;;;;18.61;77.30;99857.16;111776;1203;24089;-59
2021/09/16 04:08:55;;;;;;;22.90;10.80;;;;;;;18.60;77.41;99856.71;111802;1203;26960;-62
2021/09/16 04:11:26;;;;;;;25.00;11.10;;;;;;;18.59;77.58;99855.23;111808;1203;22567;-62
2021/09/16 04:13:57;;;;;;;28.20;11.60;;;;;;;18.58;77.62;99852.69;111879;1203;24173;-60
2021/09/16 04:16:28;;;;;;;22.00;10.30;;;;;;;18.58;77.68;99854.19;111787;1203;23752;-61
2021/09/16 04:18:59;;;;;;;24.40;10.30;;;;;;;18.56;77.88;99854.45;111666;1203;24110;-62
2021/09/16 04:21:31;;;;;;;21.90;9.70;;;;;;;18.56;77.86;99851.75;111602;1203;22638;-62
2021/09/16 04:24:02;;;;;;;22.20;10.80;;;;;;;18.57;77.72;99851.99;111635;1203;23117;-61
2021/09/16 04:26:32;;;;;;;22.30;9.70;;;;;;;18.58;77.92;99853.95;111897;1203;24159;-62
2021/09/16 04:29:03;;;;;;;22.20;9.90;;;;;;;18.60;77.88;99855.23;111648;1203;25353;-60
2021/09/16 04:31:35;;;;;;;22.40;11.20;;;;;;;18.60;77.70;99853.85;111685;1203;22454;-61
2021/09/16 04:34:06;;;;;;;22.40;10.00;;;;;;;18.60;77.86;99858.10;113508;1203;22450;-62
2021/09/16 04:36:37;;;;;;;25.80;10.90;;;;;;;18.61;77.94;99858.34;111799;1203;24102;-62
2021/09/16 04:39:08;;;;;;;27.50;10.90;;;;;;;18.61;78.04;99858.23;112700;1203;25357;-62
2021/09/16 04:41:40;;;;;;;20.40;9.40;;;;;;;18.61;78.01;99856.48;111882;1203;26269;-61
2021/09/16 04:44:13;;;;;;;19.40;10.00;;;;;;;18.62;78.07;99856.44;112005;1203;22475;-61
2021/09/16 04:46:44;;;;;;;21.80;10.10;;;;;;;18.61;78.16;99856.64;111845;1203;22802;-61
2021/09/16 04:49:15;;;;;;;20.50;10.30;;;;;;;18.62;78.14;99862.02;111616;1203;22452;-60
2021/09/16 04:51:46;;;;;;;21.50;11.00;;;;;;;18.62;78.32;99861.98;111566;1203;25361;-60
2021/09/16 04:54:17;;;;;;;18.60;9.60;;;;;;;18.62;78.36;99863.11;111860;1203;24084;-60
2021/09/16 04:56:49;;;;;;;21.90;10.40;;;;;;;18.62;78.38;99861.86;111808;1203;23905;-59
2021/09/16 04:59:20;;;;;;;18.20;9.10;;;;;;;18.63;78.41;99864.46;111663;1203;24128;-60
2021/09/16 05:01:51;;;;;;;18.80;9.80;;;;;;;18.63;78.52;99863.54;111707;1203;22529;-61
2021/09/16 05:04:23;;;;;;;22.40;9.90;;;;;;;18.64;78.64;99862.95;111632;1203;25132;-62
2021/09/16 05:06:56;;;;;;;19.60;9.40;;;;;;;18.65;78.63;99866.23;111651;1203;22451;-63
2021/09/16 05:09:27;;;;;;;19.60;9.60;;;;;;;18.65;78.71;99865.91;111661;1203;25047;-62
2021/09/16 05:11:58;;;;;;;22.20;11.00;;;;;;;18.66;78.72;99864.36;111752;1203;22474;-62
2021/09/16 05:14:29;;;;;;;22.40;11.10;;;;;;;18.67;78.86;99861.52;111760;1203;22454;-66
2021/09/16 05:17:00;;;;;;;22.10;10.70;;;;;;;18.68;79.06;99859.38;111965;1203;22974;-61
2021/09/16 05:19:31;;;;;;;22.20;11.20;;;;;;;18.68;79.20;99863.39;112052;1203;22464;-61
2021/09/16 05:22:02;;;;;;;22.60;11.40;;;;;;;18.69;79.18;99862.55;111891;1203;22535;-63
2021/09/16 05:24:33;;;;;;;18.40;10.30;;;;;;;18.69;79.39;99862.70;111880;1203;25145;-60
2021/09/16 05:27:04;;;;;;;19.80;10.10;;;;;;;18.69;79.39;99868.55;111703;1203;22465;-59
2021/09/16 05:29:35;;;;;;;19.80;9.70;;;;;;;18.70;79.44;99870.91;111859;1203;22520;-62
2021/09/16 05:32:08;;;;;;;18.80;9.90;;;;;;;18.73;79.51;99872.85;111736;1203;22414;-62
2021/09/16 05:34:39;;;;;;;23.20;10.40;;;;;;;18.75;79.54;99871.72;111898;1203;25215;-62
2021/09/16 05:37:09;;;;;;;19.10;9.90;;;;;;;18.78;79.53;99874.49;111603;1203;22450;-62
2021/09/16 05:39:40;;;;;;;20.10;10.80;;;;;;;18.81;79.59;99875.02;111586;1203;22437;-61
2021/09/16 05:42:13;;;;;;;21.00;11.30;;;;;;;18.84;79.71;99881.02;111811;1203;26354;-61
2021/09/16 05:44:44;;;;;;;21.50;11.10;;;;;;;18.85;79.75;99879.65;111776;1203;22449;-65
2021/09/16 05:47:15;;;;;;;21.10;10.50;;;;;;;18.88;79.73;99880.88;111770;1203;22455;-61
2021/09/16 05:49:46;;;;;;;17.10;9.90;;;;;;;18.89;79.65;99881.59;111787;1203;24082;-61
2021/09/16 05:52:17;;;;;;;21.60;10.90;;;;;;;18.91;79.70;99878.09;111572;1203;24071;-61
2021/09/16 05:54:49;;;;;;;18.50;9.90;;;;;;;18.92;79.95;99878.58;111979;1203;22386;-62
2021/09/16 05:57:20;;;;;;;20.20;11.10;;;;;;;18.94;79.98;99878.07;111727;1203;24169;-62
2021/09/16 05:59:54;;;;;;;23.10;9.40;;;;;;;18.98;80.15;99883.92;111789;1203;25096;-62
2021/09/16 06:02:27;;;;;;;21.30;10.90;;;;;;;19.00;80.05;99882.73;111520;1203;22429;-62
2021/09/16 06:04:57;;;;;;;28.90;12.90;;;;;;;19.03;80.18;99883.77;111653;1203;22529;-61
2021/09/16 06:07:28;;;;;;;22.30;10.90;;;;;;;19.06;80.43;99882.66;111577;1203;22730;-61
2021/09/16 06:10:01;;;;;;;26.30;11.90;;;;;;;19.09;80.33;99877.46;111981;1203;22469;-59
2021/09/16 06:12:33;;;;;;;26.60;11.50;;;;;;;19.12;80.54;99883.20;111283;1202;22481;-60
2021/09/16 06:15:05;;;;;;;23.80;11.70;;;;;;;19.16;80.39;99885.85;111557;1203;25609;-60
2021/09/16 06:17:38;;;;;;;22.70;11.70;;;;;;;19.19;80.52;99884.48;112335;1203;22451;-61
2021/09/16 06:20:11;;;;;;;22.80;10.60;;;;;;;19.22;80.43;99888.19;111760;1203;22575;-60
2021/09/16 06:22:46;;;;;;;21.20;10.50;;;;;;;19.24;80.44;99883.39;111761;1203;25653;-60
2021/09/16 06:25:19;;;;;;;21.30;11.60;;;;;;;19.27;80.54;99886.73;111490;1203;26516;-60
2021/09/16 06:27:50;;;;;;;23.00;12.50;;;;;;;19.28;80.40;99886.86;111648;1203;22451;-60
2021/09/16 06:30:23;;;;;;;24.60;12.60;;;;;;;19.30;80.44;99883.68;111664;1203;22445;-62
2021/09/16 06:32:54;;;;;;;24.00;12.30;;;;;;;19.32;80.43;99883.74;111686;1203;25151;-61
2021/09/16 06:35:25;;;;;;;22.80;12.30;;;;;;;19.34;80.24;99885.00;111711;1203;22455;-62
2021/09/16 06:37:56;;;;;;;24.30;11.60;;;;;;;19.36;80.49;99888.05;111349;1203;24112;-62
2021/09/16 06:40:28;;;;;;;21.60;11.10;;;;;;;19.38;80.37;99892.19;111540;1203;24041;-62
2021/09/16 06:42:59;;;;;;;19.20;11.50;;;;;;;19.40;80.44;99895.50;112120;1203;24150;-63
2021/09/16 06:45:33;;;;;;;22.30;11.20;;;;;;;19.40;80.39;99894.81;111682;1203;25085;-61
2021/09/16 06:48:04;;;;;;;22.50;11.10;;;;;;;19.41;80.35;99895.35;111646;1203;23332;-62
2021/09/16 06:50:36;;;;;;;25.10;12.00;;;;;;;19.43;80.38;99901.91;111683;1203;27243;-62
2021/09/16 06:53:08;;;;;;;19.80;11.80;;;;;;;19.44;80.35;99905.69;111753;1203;24187;-61
2021/09/16 06:55:38;;;;;;;23.70;10.90;;;;;;;19.45;80.40;99900.67;111769;1203;22472;-60
2021/09/16 06:58:09;;;;;;;22.00;10.80;;;;;;;19.47;80.26;99904.02;111428;1202;22417;-62
2021/09/16 07:00:46;;;;;;;24.50;13.20;;;;;;;19.48;80.36;99909.55;111430;1202;26343;-60
2021/09/16 07:03:17;;;;;;;20.10;11.10;;;;;;;19.48;80.55;99914.04;111807;1197;22554;-60
2021/09/16 07:05:49;;;;;;;21.50;12.30;;;;;;;19.46;80.48;99912.85;111656;1203;22449;-62
2021/09/16 07:08:20;;;;;;;22.70;12.60;;;;;;;19.46;80.53;99912.43;112048;1203;22471;-60
2021/09/16 07:10:51;;;;;;;24.90;13.30;;;;;;;19.49;80.71;99913.09;111423;1203;22431;-62
2021/09/16 07:13:22;;;;;;;26.50;13.60;;;;;;;19.49;80.71;99916.32;111508;1203;22453;-61
2021/09/16 07:15:54;;;;;;;25.10;12.80;;;;;;;19.53;80.79;99913.52;111571;1203;24113;-62
2021/09/16 07:18:25;;;;;;;24.60;13.30;;;;;;;19.56;81.07;99914.37;112409;1203;22527;-61
2021/09/16 07:20:57;;;;;;;23.40;13.10;;;;;;;19.59;80.78;99911.79;112449;1203;22708;-61
2021/09/16 07:23:28;;;;;;;28.60;14.40;;;;;;;19.62;80.93;99910.27;111763;1203;22449;-61
2021/09/16 07:25:59;;;;;;;25.90;13.80;;;;;;;19.64;80.88;99914.95;111527;1203;22453;-61
2021/09/16 07:28:34;;;;;;;26.10;14.40;;;;;;;19.67;80.92;99912.83;111580;1203;22453;-62
2021/09/16 07:31:06;;;;;;;26.70;14.90;;;;;;;19.69;81.00;99917.53;111744;1203;22639;-61
2021/09/16 07:36:28;;;;;;;27.20;13.30;;;;;;;19.71;81.12;99928.42;111505;1203;22598;-61
2021/09/16 07:39:01;;;;;;;28.20;15.60;;;;;;;19.72;81.24;99937.65;112210;1203;22467;-61
2021/09/16 07:41:33;;;;;;;28.00;15.40;;;;;;;19.74;81.29;99944.59;112248;1203;24092;-61
2021/09/16 07:44:05;;;;;;;24.40;14.90;;;;;;;19.76;81.30;99936.41;112007;1203;22884;-60
2021/09/16 07:46:37;;;;;;;24.10;14.60;;;;;;;19.78;81.35;99941.20;111865;1203;24067;-61
2021/09/16 07:49:09;;;;;;;23.40;14.10;;;;;;;19.81;81.66;99936.85;111727;1203;25894;-62
2021/09/16 07:51:43;;;;;;;24.40;14.20;;;;;;;19.85;81.54;99941.86;112125;1203;22561;-61
2021/09/16 07:54:15;;;;;;;29.60;14.80;;;;;;;19.90;81.41;99943.50;112106;1203;24825;-61
2021/09/16 07:56:45;;;;;;;26.00;15.10;;;;;;;19.94;81.57;99943.14;111641;1203;22457;-61
2021/09/16 07:59:17;;;;;;;24.70;15.20;;;;;;;19.99;81.52;99942.31;111710;1203;22473;-61
2021/09/16 08:01:48;;;;;;;21.90;13.10;;;;;;;20.02;81.48;99945.66;112034;1203;25187;-60
2021/09/16 08:04:20;;;;;;;23.90;14.20;;;;;;;20.05;81.38;99941.70;111500;1203;25126;-61
2021/09/16 08:06:50;;;;;;;27.30;14.90;;;;;;;20.10;81.44;99937.86;112096;1203;22510;-60
2021/09/16 08:09:21;;;;;;;25.50;14.20;;;;;;;20.17;81.55;99939.13;111446;1203;22452;-61
2021/09/16 08:11:53;;;;;;;21.20;12.60;;;;;;;20.24;81.48;99944.33;111581;1203;24069;-63
2021/09/16 08:14:24;;;;;;;25.40;13.20;;;;;;;20.29;81.55;99942.90;111527;1203;23017;-60
2021/09/16 08:16:55;;;;;;;22.50;12.90;;;;;;;20.36;81.43;99941.21;111874;1203;22469;-61
2021/09/16 08:19:27;;;;;;;24.60;13.50;;;;;;;20.41;81.16;99944.97;111533;1203;25176;-61
2021/09/16 08:21:58;;;;;;;22.50;13.40;;;;;;;20.48;81.04;99945.44;111509;1194;25347;-63
2021/09/16 08:24:29;;;;;;;23.70;12.80;;;;;;;20.54;81.12;99945.85;111679;1203;22500;-63
2021/09/16 08:27:00;;;;;;;21.60;12.10;;;;;;;20.59;80.90;99950.85;111824;1203;22617;-61
2021/09/16 08:29:32;;;;;;;24.00;13.30;;;;;;;20.64;80.86;99948.73;111611;1203;22982;-60
2021/09/16 08:32:04;;;;;;;25.50;12.50;;;;;;;20.67;80.77;99948.48;111791;1202;25647;-61
2021/09/16 08:34:37;;;;;;;22.00;12.60;;;;;;;20.69;80.56;99946.78;111622;1202;24109;-61
2021/09/16 08:37:08;;;;;;;21.10;12.00;;;;;;;20.72;80.28;99944.90;111689;1203;22447;-61
2021/09/16 08:39:39;;;;;;;26.00;13.20;;;;;;;20.75;80.38;99944.48;111722;1203;22542;-62
2021/09/16 08:45:02;;;;;;;24.60;13.60;;;;;;;20.85;80.89;99950.92;111466;1203;24011;-63
2021/09/16 08:47:36;;;;;;;25.70;15.10;;;;;;;20.89;80.76;99949.32;111526;1203;25313;-61
2021/09/16 08:50:10;;;;;;;24.50;12.60;;;;;;;20.91;80.57;99947.68;111481;1203;23157;-61
2021/09/16 08:52:43;;;;;;;23.10;11.40;;;;;;;20.92;80.37;99948.51;111635;1202;25167;-62
2021/09/16 08:55:17;;;;;;;21.90;10.70;;;;;;;20.94;80.06;99945.57;111847;1203;24108;-62
2021/09/16 08:57:55;;;;;;;21.50;11.10;;;;;;;20.97;80.10;99944.76;111668;1203;23972;-62
2021/09/16 09:00:28;;;;;;;23.30;10.60;;;;;;;21.03;79.89;99944.90;111526;1203;22421;-61
2021/09/16 09:03:00;;;;;;;22.10;10.70;;;;;;;21.09;80.05;99946.10;111877;1203;25479;-62
2021/09/16 09:05:32;;;;;;;20.50;11.00;;;;;;;21.15;79.57;99953.48;111897;1203;24194;-60
2021/09/16 09:08:06;;;;;;;21.40;9.60;;;;;;;21.16;79.02;99952.69;111576;1203;22497;-61
2021/09/16 09:10:41;;;;;;;18.50;9.10;;;;;;;21.13;78.87;99948.85;111667;1202;23006;-61
2021/09/16 09:13:15;;;;;;;19.30;9.20;;;;;;;21.10;78.60;99947.90;111708;1203;22450;-62
2021/09/16 09:15:49;;;;;;;21.10;10.00;;;;;;;21.10;78.60;99947.55;111674;1203;22596;-61
2021/09/16 09:18:21;;;;;;;24.40;10.50;;;;;;;21.10;78.45;99942.48;111637;1203;22456;-61
2021/09/16 09:21:02;;;;;;;18.70;8.40;;;;;;;21.11;78.32;99943.95;111550;1203;22477;-60
2021/09/16 09:23:37;;;;;;;19.60;9.80;;;;;;;21.11;78.23;99943.88;111634;1203;22527;-61
2021/09/16 09:26:24;;;;;;;14.10;6.50;;;;;;;21.12;78.11;99942.36;111515;1203;24050;-62
2021/09/16 09:29:16;;;;;;;13.00;6.40;;;;;;;21.14;77.90;99946.13;111607;1203;22439;-60
2021/09/16 09:32:00;;;;;;;38.40;21.00;;;;;;;21.15;77.77;99941.86;111542;1203;22438;-60
2021/09/16 09:34:33;;;;;;;17.00;9.50;;;;;;;21.17;77.42;99946.64;111645;1203;22571;-62
2021/09/16 09:37:18;;;;;;;14.00;5.50;;;;;;;21.18;77.24;99946.80;111734;1203;23118;-61
2021/09/16 09:40:00;;;;;;;12.60;4.90;;;;;;;21.17;77.02;99943.91;111672;1203;22436;-62
2021/09/16 09:42:33;;;;;;;15.50;5.10;;;;;;;21.18;77.07;99943.39;111484;1203;22717;-61
2021/09/16 09:45:10;;;;;;;12.00;5.00;;;;;;;21.17;76.93;99941.23;111646;1203;25123;-61
2021/09/16 09:47:43;;;;;;;11.70;4.10;;;;;;;21.19;76.95;99943.81;111604;1203;26418;-60
2021/09/16 09:50:22;;;;;;;13.30;5.20;;;;;;;21.20;76.69;99943.13;111761;1203;25055;-61
2021/09/16 09:52:55;;;;;;;12.40;5.30;;;;;;;21.15;76.49;99944.81;111976;1203;22431;-62
2021/09/16 09:55:27;;;;;;;14.70;4.50;;;;;;;21.10;76.72;99943.64;111969;1203;25163;-62
2021/09/16 09:58:05;;;;;;;11.00;3.80;;;;;;;21.09;76.73;99942.05;111606;1203;22449;-61
2021/09/16 10:00:36;;;;;;;11.80;4.10;;;;;;;21.08;76.84;99939.33;111639;1203;22471;-61
2021/09/16 10:03:08;;;;;;;11.40;4.10;;;;;;;21.08;76.56;99934.89;111791;1203;23611;-61
2021/09/16 10:05:40;;;;;;;10.00;3.10;;;;;;;21.10;76.70;99940.74;111658;1203;25067;-62
2021/09/16 10:08:15;;;;;;;11.00;3.30;;;;;;;21.13;76.53;99940.10;111643;1203;25067;-61
2021/09/16 10:10:49;;;;;;;10.00;3.10;;;;;;;21.21;76.64;99936.52;111683;1203;22457;-61
2021/09/16 10:13:20;;;;;;;8.10;2.80;;;;;;;21.30;76.54;99932.44;111513;1203;22455;-60
2021/09/16 10:15:53;;;;;;;9.50;3.30;;;;;;;21.40;76.30;99932.67;111499;1203;22455;-61
2021/09/16 10:18:24;;;;;;;8.80;2.90;;;;;;;21.47;76.13;99933.27;111595;1203;22449;-61
2021/09/16 10:20:55;;;;;;;5.20;2.10;;;;;;;21.51;75.30;99934.91;111493;1203;22477;-61
2021/09/16 10:23:29;;;;;;;7.80;2.00;;;;;;;21.49;74.72;99933.71;111574;1203;22456;-61
2021/09/16 10:26:00;;;;;;;5.90;2.00;;;;;;;21.47;74.84;99937.66;111718;1204;26462;-60
2021/09/16 10:28:40;;;;;;;7.40;2.10;;;;;;;21.48;74.74;99935.02;111614;1201;22487;-60
2021/09/16 10:31:25;;;;;;;6.30;2.40;;;;;;;21.47;74.72;99929.82;111730;1203;23747;-62
2021/09/16 10:33:57;;;;;;;8.10;2.90;;;;;;;21.48;74.78;99933.91;111734;1203;24089;-62
2021/09/16 10:36:28;;;;;;;6.40;2.90;;;;;;;21.51;74.67;99932.02;112160;1203;25414;-61
2021/09/16 10:38:59;;;;;;;8.10;2.50;;;;;;;21.54;74.59;99928.30;111723;1204;25452;-62
2021/09/16 10:41:34;;;;;;;7.10;2.40;;;;;;;21.56;74.53;99928.91;111852;1203;22455;-61
2021/09/16 10:44:22;;;;;;;8.90;3.30;;;;;;;21.54;74.03;99931.24;111627;1203;25074;-61
2021/09/16 10:47:00;;;;;;;8.50;2.60;;;;;;;21.47;74.17;99931.27;112082;1203;24204;-61
2021/09/16 10:49:36;;;;;;;10.20;3.10;;;;;;;21.41;74.79;99933.88;111485;1203;22407;-62
2021/09/16 10:52:24;;;;;;;9.80;3.40;;;;;;;21.36;74.90;99931.90;111691;1203;22439;-60
2021/09/16 10:55:00;;;;;;;9.70;3.30;;;;;;;21.34;74.88;99935.06;111675;1204;25434;-62
2021/09/16 10:57:38;;;;;;;9.20;3.00;;;;;;;21.34;74.62;99936.61;111452;1204;22441;-60
2021/09/16 11:00:17;;;;;;;7.30;2.90;;;;;;;21.32;74.45;99943.80;111504;1203;22462;-62
2021/09/16 11:03:16;;;;;;;8.10;3.20;;;;;;;21.30;74.57;99940.09;111914;1203;22458;-62
2021/09/16 11:06:00;;;;;;;10.50;3.70;;;;;;;21.29;74.67;99940.58;111606;1203;22444;-63
2021/09/16 11:09:02;;;;;;;11.40;3.70;;;;;;;21.30;74.64;99942.81;111513;1203;22846;-62
2021/09/16 11:11:54;;;;;;;9.30;3.10;;;;;;;21.33;74.53;99942.17;111799;1204;24069;-61
2021/09/16 11:14:40;;;;;;;6.30;2.10;;;;;;;21.27;74.44;99962.02;111703;1203;24231;-61
2021/09/16 11:17:12;;;;;;;9.20;2.70;;;;;;;20.96;75.09;99964.02;111664;1203;22453;-62
2021/09/16 11:19:49;;;;;;;9.10;2.70;;;;;;;20.69;75.90;99967.77;111639;1203;24080;-62
2021/09/16 11:22:23;;;;;;;8.70;3.30;;;;;;;20.45;76.34;99967.11;111575;1203;25165;-61
2021/09/16 11:24:58;;;;;;;8.60;3.20;;;;;;;20.31;76.70;99966.45;111632;1203;22474;-64
2021/09/16 11:27:33;;;;;;;10.50;3.10;;;;;;;20.15;77.02;99962.59;111635;1204;24236;-61
2021/09/16 11:30:07;;;;;;;10.10;3.70;;;;;;;19.98;77.27;99962.52;111751;1203;24115;-63
2021/09/16 11:32:40;;;;;;;10.40;3.70;;;;;;;19.87;77.64;99964.94;111645;1204;24213;-61
2021/09/16 11:35:14;;;;;;;10.80;4.30;;;;;;;19.82;78.04;99961.81;111902;1203;22507;-60
2021/09/16 11:37:47;;;;;;;11.20;3.70;;;;;;;19.82;78.32;99960.30;111630;1204;26334;-61
2021/09/16 11:40:22;;;;;;;14.50;4.40;;;;;;;19.82;78.65;99961.96;111501;1204;22458;-61
2021/09/16 11:42:55;;;;;;;12.30;5.10;;;;;;;19.80;79.00;99956.55;111631;1203;25275;-60
2021/09/16 11:45:27;;;;;;;13.80;5.30;;;;;;;19.77;79.41;99957.23;111547;1204;24670;-62